KBIX/BIX METAR and TAF weather

Enter ICAO airport designator
Station Type Date Time Source
KBIX METAR 2018/04/23 10:56 UTC NOAA

KBIX 231056Z AUTO 00000KT 10SM OVC030 16/13 A2994 RMK AO2 SLP141 T01570132 $


Station Type Date Time Source
KBIX Decoded METAR 2018/04/23 10:56 UTC NOAA

Keesler Air Force Base / Biloxi, MS, United States (KBIX) 30-25N 088-55W
Apr 23, 2018 - 06:56 AM EDT / 2018.04.23 1056 UTC
Wind: Calm:0
Visibility: 10 mile(s):0
Sky conditions: overcast
Temperature: 60.3 F (15.7 C)
Dew Point: 55.8 F (13.2 C)
Relative Humidity: 85%
Pressure (altimeter): 29.94 in. Hg (1013 hPa)
ob: KBIX 231056Z AUTO 00000KT 10SM OVC030 16/13 A2994 RMK AO2 SLP141 T01570132
cycle: 11

Station Type Date Time Source
KBIX TAF 2018/04/23 10:12 UTC NOAA

TAF KBIX 231000Z 2310/2416 30006KT 9999 BKN020 QNH2991INS
BECMG 2314/2315 27010G15KT 9999 FEW050 QNH2992INS
BECMG 2400/2401 28012KT 9999 BKN030 QNH2994INS TX23/2321Z TN15/2312Z


Example: see airport list